Search for airport 
image banner adimage banner ad
image banner ad

SBBG - Comandante Gustavo Kraemer

Located in Bage, Brazil

ICAO - SBBG, IATA - BGX

Data provided by Airmate  

General information

Coordinates: S31°23'27" W54°6'35"
Elevation is 610 feet MSL.
Magnetic variation is -14° East
View others Airports in Rio Grande do Sul

Operational data

Open for public use
Current time UTC:
Current local time:
Weather
METAR: SBBG 021400Z 06009KT CAVOK 28/19 Q1009
TAF: TAF SBBG 020900Z 0212/0224 06008KT CAVOK TX28/0218Z TN21/0223Z BECMG 0214/0216 12005KT 9999 FEW045 BECMG 0221/0223 08007KT 9000 DZ SCT012 BKN048 RMK PAY
View NOTAMs / SUP AIP / TFR affecting this airport [VIEW]
Communications frequencies: [VIEW]

Runways:

RWY identifierQFULength (ft)Width (ft)SurfaceLDA (ft)
14125°3770148
32305°3770148
0646°492198
24226°492198

Airport contact information

Address: Bage Brazil

Satellite view of SBBG